Time;durP1;ratioP1;P1;durP2;ratioP2;P2;SDS_P1;SDS_P2;PMS_P1;PMS_P2;Temp;Humidity;BMP_temperature;BMP_pressure;BME280_temperature;BME280_humidity;BME280_pressure;Samples;Min_cycle;Max_cycle;Signal;HPM_P1;HPM_P2
2021/12/27 00:02:04;;;;;;;44.30;16.63;;;;;;;;;;5069365;28;20340;-76
2021/12/27 00:04:29;;;;;;;39.23;14.93;;;;;;;;;;5069269;28;20028;-76
2021/12/27 00:06:55;;;;;;;41.67;15.23;;;;;;;;;;5070828;28;20094;-76
2021/12/27 00:09:21;;;;;;;40.17;16.03;;;;;;;;;;5072136;28;20028;-79
2021/12/27 00:11:46;;;;;;;37.73;15.60;;;;;;;;;;5071136;28;20031;-77
2021/12/27 00:14:12;;;;;;;38.67;15.13;;;;;;;;;;5071719;28;20462;-77
2021/12/27 00:16:38;;;;;;;36.47;15.03;;;;;;;;;;5059199;28;20035;-76
2021/12/27 00:19:03;;;;;;;40.67;15.47;;;;;;;;;;5076806;28;20067;-77
2021/12/27 00:21:29;;;;;;;39.67;15.80;;;;;;;;;;5076425;28;20064;-77
2021/12/27 00:23:54;;;;;;;36.37;15.10;;;;;;;;;;5072892;28;20134;-77
2021/12/27 00:26:20;;;;;;;35.43;14.97;;;;;;;;;;5071662;28;20020;-77
2021/12/27 00:28:45;;;;;;;38.13;15.93;;;;;;;;;;5076332;28;20035;-75
2021/12/27 00:31:11;;;;;;;39.93;16.43;;;;;;;;;;5077021;28;20052;-76
2021/12/27 00:33:36;;;;;;;38.20;14.70;;;;;;;;;;5074559;28;20388;-77
2021/12/27 00:36:02;;;;;;;39.73;16.07;;;;;;;;;;5072355;28;20078;-76
2021/12/27 00:38:28;;;;;;;42.40;16.37;;;;;;;;;;5071938;28;20492;-76
2021/12/27 00:40:54;;;;;;;36.07;15.00;;;;;;;;;;5071523;28;20052;-77
2021/12/27 00:43:20;;;;;;;41.00;16.27;;;;;;;;;;5070111;28;20039;-76
2021/12/27 00:45:46;;;;;;;39.07;15.07;;;;;;;;;;5070465;28;20023;-77
2021/12/27 00:48:11;;;;;;;34.50;14.50;;;;;;;;;;5068968;28;20081;-76
2021/12/27 00:50:37;;;;;;;36.87;15.80;;;;;;;;;;5070948;28;20021;-76
2021/12/27 00:53:03;;;;;;;34.47;16.53;;;;;;;;;;5080935;28;20024;-76
2021/12/27 00:55:28;;;;;;;42.00;15.90;;;;;;;;;;5070951;28;20032;-71
2021/12/27 00:57:54;;;;;;;40.77;14.40;;;;;;;;;;5088329;28;20032;-76
2021/12/27 01:00:23;;;;;;;37.03;15.27;;;;;;;;;;5083042;28;20283;-76
2021/12/27 01:02:49;;;;;;;37.17;15.37;;;;;;;;;;5074163;28;20485;-75
2021/12/27 01:05:16;;;;;;;36.90;15.73;;;;;;;;;;5074879;28;20500;-77
2021/12/27 01:07:42;;;;;;;41.07;16.30;;;;;;;;;;5072633;28;20090;-77
2021/12/27 01:17:42;;;;;;;35.67;16.03;;;;;;;;;;5075190;28;20033;-77
2021/12/27 01:20:11;;;;;;;40.90;15.17;;;;;;;;;;5073411;28;20037;-76
2021/12/27 01:22:37;;;;;;;39.63;16.03;;;;;;;;;;5073409;28;20033;-76
2021/12/27 01:25:06;;;;;;;38.20;15.93;;;;;;;;;;5071846;28;20114;-75
2021/12/27 01:27:31;;;;;;;41.37;16.83;;;;;;;;;;5071818;28;20399;-76
2021/12/27 01:29:57;;;;;;;35.43;15.73;;;;;;;;;;5071843;28;20028;-77
2021/12/27 01:32:25;;;;;;;39.63;14.53;;;;;;;;;;5071706;28;20369;-77
2021/12/27 01:34:50;;;;;;;39.43;15.87;;;;;;;;;;5073349;28;20439;-78
2021/12/27 01:37:18;;;;;;;37.40;16.70;;;;;;;;;;5072676;28;20025;-76
2021/12/27 01:39:45;;;;;;;34.60;15.33;;;;;;;;;;5072830;28;20032;-77
2021/12/27 01:42:11;;;;;;;35.73;14.60;;;;;;;;;;5073037;28;20032;-76
2021/12/27 01:44:36;;;;;;;37.40;17.33;;;;;;;;;;5071283;28;20038;-77
2021/12/27 01:47:02;;;;;;;35.03;15.70;;;;;;;;;;5072617;28;20039;-77
2021/12/27 01:49:28;;;;;;;42.93;16.00;;;;;;;;;;5071284;28;20051;-78
2021/12/27 01:51:53;;;;;;;33.03;15.47;;;;;;;;;;5072651;28;20032;-76
2021/12/27 01:54:19;;;;;;;39.83;16.67;;;;;;;;;;5072506;28;20029;-77
2021/12/27 01:56:45;;;;;;;37.10;15.73;;;;;;;;;;5072408;28;20456;-77
2021/12/27 01:59:10;;;;;;;41.60;15.87;;;;;;;;;;5071059;28;20052;-76
2021/12/27 02:01:36;;;;;;;39.43;15.13;;;;;;;;;;5071034;28;20092;-75
2021/12/27 02:04:02;;;;;;;38.17;16.47;;;;;;;;;;5071065;28;20092;-76
2021/12/27 02:06:28;;;;;;;31.67;15.37;;;;;;;;;;5072343;28;20029;-77
2021/12/27 02:08:54;;;;;;;33.63;15.37;;;;;;;;;;5071053;28;20526;-77
2021/12/27 02:11:20;;;;;;;38.80;17.43;;;;;;;;;;5072461;28;20468;-77
2021/12/27 02:13:46;;;;;;;37.97;14.90;;;;;;;;;;5071653;28;20024;-75
2021/12/27 02:16:17;;;;;;;40.20;16.73;;;;;;;;;;5070706;28;20031;-75
2021/12/27 02:18:44;;;;;;;38.20;16.33;;;;;;;;;;5071837;28;20028;-77
2021/12/27 02:21:11;;;;;;;42.67;15.67;;;;;;;;;;5072170;28;20158;-78
2021/12/27 02:23:39;;;;;;;31.63;14.73;;;;;;;;;;5072403;28;20028;-76
2021/12/27 02:26:05;;;;;;;39.33;16.43;;;;;;;;;;5071650;28;20111;-75
2021/12/27 02:28:30;;;;;;;42.77;16.20;;;;;;;;;;5070886;28;20666;-75
2021/12/27 02:30:56;;;;;;;35.33;16.20;;;;;;;;;;5071718;28;20028;-77
2021/12/27 02:33:22;;;;;;;35.80;14.27;;;;;;;;;;5069913;28;20051;-77
2021/12/27 02:35:54;;;;;;;29.87;15.47;;;;;;;;;;5070359;28;20364;-77
2021/12/27 02:38:21;;;;;;;;;;;;;;;;;;5070884;28;20028;-75
2021/12/27 02:40:47;;;;;;;35.10;14.40;;;;;;;;;;5071727;28;19912;-76
2021/12/27 02:43:17;;;;;;;30.33;14.23;;;;;;;;;;5071742;28;20024;-78
2021/12/27 02:45:45;;;;;;;37.93;15.17;;;;;;;;;;5071528;28;20089;-76
2021/12/27 02:48:12;;;;;;;33.60;15.37;;;;;;;;;;5071344;28;20036;-75
2021/12/27 02:50:40;;;;;;;35.47;16.00;;;;;;;;;;5071042;28;20056;-77
2021/12/27 02:53:07;;;;;;;35.87;14.67;;;;;;;;;;5071111;28;20032;-76
2021/12/27 02:55:33;;;;;;;39.47;16.97;;;;;;;;;;5070724;28;20028;-76
2021/12/27 02:57:59;;;;;;;42.13;15.80;;;;;;;;;;5070766;28;20355;-75
2021/12/27 03:00:32;;;;;;;39.33;15.60;;;;;;;;;;5069360;28;20036;-76
2021/12/27 03:02:58;;;;;;;30.13;14.60;;;;;;;;;;5071254;28;20131;-76
2021/12/27 03:05:27;;;;;;;34.20;15.23;;;;;;;;;;5069426;28;20035;-76
2021/12/27 03:07:54;;;;;;;35.40;15.73;;;;;;;;;;5070991;28;20466;-76
2021/12/27 03:10:23;;;;;;;45.10;17.00;;;;;;;;;;5070696;28;20033;-74
2021/12/27 03:12:50;;;;;;;32.47;15.03;;;;;;;;;;5069337;28;20028;-76
2021/12/27 03:15:17;;;;;;;34.03;15.87;;;;;;;;;;5070536;28;20032;-74
2021/12/27 03:17:44;;;;;;;43.43;16.53;;;;;;;;;;5069413;28;20537;-77
2021/12/27 03:20:12;;;;;;;37.33;15.27;;;;;;;;;;5086351;28;20029;-77
2021/12/27 03:22:40;;;;;;;40.90;17.07;;;;;;;;;;5070538;28;20146;-75
2021/12/27 03:25:08;;;;;;;44.87;16.17;;;;;;;;;;5068693;28;20029;-76
2021/12/27 03:27:33;;;;;;;40.30;16.03;;;;;;;;;;5069106;28;20032;-76
2021/12/27 03:29:59;;;;;;;37.77;17.77;;;;;;;;;;5070591;28;20082;-76
2021/12/27 03:32:24;;;;;;;35.00;16.67;;;;;;;;;;5068819;28;20051;-77
2021/12/27 03:34:56;;;;;;;41.20;15.00;;;;;;;;;;5070310;28;20067;-77
2021/12/27 03:37:23;;;;;;;36.87;16.23;;;;;;;;;;5070417;28;20024;-77
2021/12/27 03:39:49;;;;;;;35.07;16.47;;;;;;;;;;5068787;28;20426;-77
2021/12/27 03:42:16;;;;;;;37.90;16.50;;;;;;;;;;5070381;28;20055;-75
2021/12/27 03:44:43;;;;;;;34.40;14.23;;;;;;;;;;5068442;28;20391;-76
2021/12/27 03:47:09;;;;;;;42.43;15.27;;;;;;;;;;5070530;28;20448;-77
2021/12/27 03:49:34;;;;;;;33.00;15.17;;;;;;;;;;5068866;28;20078;-76
2021/12/27 03:52:00;;;;;;;38.63;17.30;;;;;;;;;;5068442;28;20032;-75
2021/12/27 03:54:26;;;;;;;38.90;15.30;;;;;;;;;;5069904;28;20036;-75
2021/12/27 03:56:51;;;;;;;40.57;15.27;;;;;;;;;;5070209;28;20032;-75
2021/12/27 03:59:36;;;;;;;32.33;16.27;;;;;;;;;;5068646;28;20032;-76
2021/12/27 04:02:03;;;;;;;37.87;16.17;;;;;;;;;;5070072;28;20028;-76
2021/12/27 04:04:29;;;;;;;36.20;14.70;;;;;;;;;;5069863;28;20083;-77
2021/12/27 04:06:54;;;;;;;35.40;16.23;;;;;;;;;;5068427;28;20496;-76
2021/12/27 04:09:21;;;;;;;37.57;15.80;;;;;;;;;;5068190;28;20111;-76
2021/12/27 04:11:47;;;;;;;36.83;17.53;;;;;;;;;;5068506;28;20035;-77
2021/12/27 04:14:12;;;;;;;38.23;17.03;;;;;;;;;;5069680;28;20392;-77
2021/12/27 04:16:38;;;;;;;50.67;16.17;;;;;;;;;;5068576;28;20046;-78
2021/12/27 04:19:03;;;;;;;40.67;15.03;;;;;;;;;;5068209;28;20043;-78
2021/12/27 04:21:29;;;;;;;37.10;15.27;;;;;;;;;;5068239;28;20115;-76
2021/12/27 04:23:54;;;;;;;42.37;15.80;;;;;;;;;;5068288;28;20028;-76
2021/12/27 04:26:22;;;;;;;33.30;14.97;;;;;;;;;;5069643;28;20468;-74
2021/12/27 04:28:48;;;;;;;31.70;14.03;;;;;;;;;;5069715;28;20111;-77
2021/12/27 04:31:14;;;;;;;37.40;15.63;;;;;;;;;;5068490;28;20131;-77
2021/12/27 04:33:40;;;;;;;37.73;15.67;;;;;;;;;;5069728;28;20049;-76
2021/12/27 04:36:06;;;;;;;39.70;14.23;;;;;;;;;;5069185;28;20029;-77
2021/12/27 04:38:33;;;;;;;39.37;14.57;;;;;;;;;;5069221;28;20032;-77
2021/12/27 04:40:58;;;;;;;30.13;13.77;;;;;;;;;;5069425;28;20035;-76
2021/12/27 04:43:24;;;;;;;33.67;15.70;;;;;;;;;;5069671;28;20032;-76
2021/12/27 04:45:51;;;;;;;29.03;13.83;;;;;;;;;;5069417;28;20029;-77
2021/12/27 04:48:18;;;;;;;34.60;13.60;;;;;;;;;;5068797;28;20503;-74
2021/12/27 04:50:44;;;;;;;32.10;14.07;;;;;;;;;;5068127;28;20031;-76
2021/12/27 04:53:09;;;;;;;29.43;13.93;;;;;;;;;;5070425;28;20040;-77
2021/12/27 04:55:36;;;;;;;35.33;13.93;;;;;;;;;;5068032;28;20063;-76
2021/12/27 04:58:04;;;;;;;36.00;15.07;;;;;;;;;;5069509;28;20028;-74
2021/12/27 05:00:29;;;;;;;30.37;14.53;;;;;;;;;;5067776;28;20127;-77
2021/12/27 05:02:55;;;;;;;39.07;15.47;;;;;;;;;;5067720;28;20119;-76
2021/12/27 05:05:20;;;;;;;36.60;14.43;;;;;;;;;;5067744;28;20052;-77
2021/12/27 05:07:47;;;;;;;43.73;17.33;;;;;;;;;;5050604;28;20468;-77
2021/12/27 05:10:16;;;;;;;35.83;16.63;;;;;;;;;;5069442;28;20047;-75
2021/12/27 05:12:42;;;;;;;39.67;16.07;;;;;;;;;;5069372;28;20021;-77
2021/12/27 05:15:08;;;;;;;38.13;15.13;;;;;;;;;;5069214;28;20074;-76
2021/12/27 05:17:33;;;;;;;34.20;15.50;;;;;;;;;;5069540;28;20024;-76
2021/12/27 05:19:59;;;;;;;35.70;14.17;;;;;;;;;;5068727;28;20060;-76
2021/12/27 05:22:25;;;;;;;30.67;13.67;;;;;;;;;;5070561;28;20482;-75
2021/12/27 05:24:51;;;;;;;29.47;14.27;;;;;;;;;;5077282;28;20021;-75
2021/12/27 05:27:16;;;;;;;37.63;14.07;;;;;;;;;;5062914;28;20036;-75
2021/12/27 05:29:42;;;;;;;34.13;14.47;;;;;;;;;;5080536;28;20495;-74
2021/12/27 05:32:08;;;;;;;36.60;14.27;;;;;;;;;;5073345;28;20377;-76
2021/12/27 05:34:33;;;;;;;39.33;16.43;;;;;;;;;;5068856;28;20198;-75
2021/12/27 05:36:59;;;;;;;31.67;14.67;;;;;;;;;;5069083;28;20035;-76
2021/12/27 05:39:24;;;;;;;33.10;15.40;;;;;;;;;;5068015;28;20031;-77
2021/12/27 05:41:50;;;;;;;41.70;15.93;;;;;;;;;;5068970;28;20028;-75
2021/12/27 05:44:17;;;;;;;33.83;13.70;;;;;;;;;;5070415;28;20164;-74
2021/12/27 05:46:43;;;;;;;31.43;13.83;;;;;;;;;;5070039;28;20033;-79
2021/12/27 05:49:08;;;;;;;39.33;16.70;;;;;;;;;;5070043;28;20460;-77
2021/12/27 05:51:36;;;;;;;38.20;16.47;;;;;;;;;;5073134;28;20459;-77
2021/12/27 05:54:05;;;;;;;38.27;16.47;;;;;;;;;;5071315;28;20387;-75
2021/12/27 05:56:30;;;;;;;37.00;16.13;;;;;;;;;;5072834;28;20036;-75
2021/12/27 05:58:56;;;;;;;36.20;15.70;;;;;;;;;;5071371;28;20086;-75
2021/12/27 06:01:21;;;;;;;42.97;17.30;;;;;;;;;;5082778;28;20036;-76
2021/12/27 06:03:47;;;;;;;40.83;19.17;;;;;;;;;;5079449;28;20032;-73
2021/12/27 06:06:14;;;;;;;40.03;14.97;;;;;;;;;;5086175;28;20040;-75
2021/12/27 06:08:40;;;;;;;35.23;14.57;;;;;;;;;;5083808;28;20020;-76
2021/12/27 06:11:05;;;;;;;36.47;14.53;;;;;;;;;;5073576;28;20054;-77
2021/12/27 06:13:31;;;;;;;39.30;17.33;;;;;;;;;;5074160;28;20365;-76
2021/12/27 06:15:56;;;;;;;38.20;16.53;;;;;;;;;;5071536;28;20391;-74
2021/12/27 06:18:24;;;;;;;34.10;14.67;;;;;;;;;;5079056;28;20486;-77
2021/12/27 06:20:50;;;;;;;36.73;15.43;;;;;;;;;;5077135;28;20054;-76
2021/12/27 06:23:15;;;;;;;36.67;14.80;;;;;;;;;;5092115;28;20028;-78
2021/12/27 06:25:43;;;;;;;29.27;14.77;;;;;;;;;;5076522;28;20028;-77
2021/12/27 06:28:09;;;;;;;28.47;13.67;;;;;;;;;;5072404;28;20028;-77
2021/12/27 06:30:35;;;;;;;33.90;15.07;;;;;;;;;;5072386;28;20042;-75
2021/12/27 06:33:01;;;;;;;33.93;13.17;;;;;;;;;;5072077;28;20337;-78
2021/12/27 06:35:26;;;;;;;35.83;14.93;;;;;;;;;;5071985;28;20079;-75
2021/12/27 06:37:52;;;;;;;41.93;17.00;;;;;;;;;;5070612;28;20468;-78
2021/12/27 06:40:18;;;;;;;37.83;14.90;;;;;;;;;;5070827;28;20522;-75
2021/12/27 06:42:45;;;;;;;35.17;15.23;;;;;;;;;;5069993;28;20111;-73
2021/12/27 06:45:12;;;;;;;36.93;16.70;;;;;;;;;;5070337;28;20028;-73
2021/12/27 06:47:38;;;;;;;45.87;15.47;;;;;;;;;;5071562;28;20093;-72
2021/12/27 06:50:06;;;;;;;31.70;14.43;;;;;;;;;;5065064;28;20480;-72
2021/12/27 06:52:31;;;;;;;45.33;16.10;;;;;;;;;;5069098;28;20512;-72
2021/12/27 06:54:57;;;;;;;43.57;16.90;;;;;;;;;;5071500;28;20082;-73
2021/12/27 06:57:23;;;;;;;45.07;16.90;;;;;;;;;;5087779;28;20028;-73
2021/12/27 06:59:48;;;;;;;34.67;15.67;;;;;;;;;;5075404;28;20131;-71
2021/12/27 07:02:14;;;;;;;32.17;14.57;;;;;;;;;;5073936;28;20040;-72
2021/12/27 07:04:40;;;;;;;48.23;21.80;;;;;;;;;;5075228;28;20040;-73
2021/12/27 07:07:05;;;;;;;35.20;14.97;;;;;;;;;;5074650;28;20029;-73
2021/12/27 07:09:32;;;;;;;40.63;16.70;;;;;;;;;;5074339;28;20096;-74
2021/12/27 07:11:58;;;;;;;38.07;16.47;;;;;;;;;;5071198;28;20035;-72
2021/12/27 07:14:24;;;;;;;35.60;16.23;;;;;;;;;;5066974;28;20043;-73
2021/12/27 07:16:50;;;;;;;39.77;16.40;;;;;;;;;;5070391;28;20036;-72
2021/12/27 07:19:15;;;;;;;47.37;18.33;;;;;;;;;;5070748;28;20024;-74
2021/12/27 07:21:41;;;;;;;35.17;16.43;;;;;;;;;;5068669;28;20036;-73
2021/12/27 07:24:07;;;;;;;39.23;15.63;;;;;;;;;;5068540;28;20025;-73
2021/12/27 07:26:32;;;;;;;33.50;16.57;;;;;;;;;;5069585;28;20452;-72
2021/12/27 07:28:58;;;;;;;38.70;17.20;;;;;;;;;;5069916;28;20401;-72
2021/12/27 07:31:24;;;;;;;33.60;16.87;;;;;;;;;;5068753;28;20068;-73
2021/12/27 07:33:49;;;;;;;44.50;17.03;;;;;;;;;;5068410;28;20070;-72
2021/12/27 07:36:15;;;;;;;39.80;15.47;;;;;;;;;;5068614;28;20020;-72
2021/12/27 07:38:42;;;;;;;35.77;16.07;;;;;;;;;;5068030;28;20040;-73
2021/12/27 07:41:09;;;;;;;32.87;14.13;;;;;;;;;;5067386;28;20033;-72
2021/12/27 07:43:34;;;;;;;36.83;15.17;;;;;;;;;;5067841;28;20107;-74
2021/12/27 07:46:03;;;;;;;37.67;15.73;;;;;;;;;;5069808;28;20161;-73
2021/12/27 07:48:28;;;;;;;34.60;14.87;;;;;;;;;;5067363;28;20105;-73
2021/12/27 07:50:54;;;;;;;38.77;16.47;;;;;;;;;;5068209;28;20468;-73
2021/12/27 07:53:20;;;;;;;36.93;15.87;;;;;;;;;;5067809;28;20491;-72
2021/12/27 07:55:46;;;;;;;35.90;14.73;;;;;;;;;;5069071;28;20021;-72
2021/12/27 07:58:11;;;;;;;46.67;16.47;;;;;;;;;;5068009;28;20033;-73
2021/12/27 08:00:37;;;;;;;49.30;19.20;;;;;;;;;;5067811;28;20476;-73
2021/12/27 08:03:02;;;;;;;34.00;15.50;;;;;;;;;;5069349;28;20476;-72
2021/12/27 08:05:28;;;;;;;36.00;13.90;;;;;;;;;;5069258;28;20074;-73
2021/12/27 08:07:54;;;;;;;45.93;15.47;;;;;;;;;;5067801;28;20503;-73
2021/12/27 08:10:19;;;;;;;34.97;15.83;;;;;;;;;;5069220;28;20468;-73
2021/12/27 08:12:45;;;;;;;36.37;16.03;;;;;;;;;;5068434;28;20733;-72
2021/12/27 08:15:12;;;;;;;31.63;15.07;;;;;;;;;;5067449;28;20051;-73
2021/12/27 08:17:38;;;;;;;43.57;15.93;;;;;;;;;;5067288;28;20104;-74
2021/12/27 08:20:06;;;;;;;30.90;14.40;;;;;;;;;;5069028;28;20206;-73
2021/12/27 08:22:32;;;;;;;31.20;14.13;;;;;;;;;;5067797;28;20625;-73
2021/12/27 08:24:57;;;;;;;30.47;14.47;;;;;;;;;;5067688;28;20094;-73
2021/12/27 08:27:26;;;;;;;36.87;14.67;;;;;;;;;;5067710;28;20433;-73
2021/12/27 08:29:51;;;;;;;37.83;14.97;;;;;;;;;;5068575;28;20056;-73
2021/12/27 08:32:18;;;;;;;36.17;15.17;;;;;;;;;;5067617;28;20319;-73
2021/12/27 08:34:43;;;;;;;39.90;14.97;;;;;;;;;;5068189;28;20052;-73
2021/12/27 08:37:10;;;;;;;38.60;14.37;;;;;;;;;;5069138;28;20089;-73
2021/12/27 08:39:40;;;;;;;39.70;15.57;;;;;;;;;;5066793;28;20090;-74
2021/12/27 08:42:10;;;;;;;29.60;14.33;;;;;;;;;;5066911;28;20119;-73
2021/12/27 08:44:37;;;;;;;31.63;14.03;;;;;;;;;;5066862;28;20594;-74
2021/12/27 08:47:04;;;;;;;45.50;15.07;;;;;;;;;;5050315;28;20032;-73
2021/12/27 08:49:30;;;;;;;36.93;16.43;;;;;;;;;;5067660;28;20066;-73
2021/12/27 08:51:55;;;;;;;32.80;14.07;;;;;;;;;;5068814;28;20029;-72
2021/12/27 08:54:21;;;;;;;30.87;13.80;;;;;;;;;;5066671;28;20026;-73
2021/12/27 08:56:46;;;;;;;29.20;15.20;;;;;;;;;;5068464;28;20028;-72
2021/12/27 08:59:12;;;;;;;41.27;16.47;;;;;;;;;;5067753;28;20031;-73
2021/12/27 09:01:38;;;;;;;43.07;16.77;;;;;;;;;;5067453;28;20028;-72
2021/12/27 09:04:04;;;;;;;42.67;15.37;;;;;;;;;;5068537;28;20047;-72
2021/12/27 09:06:33;;;;;;;38.47;15.70;;;;;;;;;;5066620;28;20388;-72
2021/12/27 09:08:59;;;;;;;32.97;15.63;;;;;;;;;;5065763;28;20396;-73
2021/12/27 09:11:25;;;;;;;32.10;14.90;;;;;;;;;;5068531;28;20075;-73
2021/12/27 09:13:51;;;;;;;28.60;14.27;;;;;;;;;;5067384;28;20070;-73
2021/12/27 09:16:16;;;;;;;36.23;14.77;;;;;;;;;;5068154;28;20089;-74
2021/12/27 09:18:42;;;;;;;35.83;15.47;;;;;;;;;;5066382;28;20564;-74
2021/12/27 09:21:07;;;;;;;47.47;14.70;;;;;;;;;;5068165;28;20533;-73
2021/12/27 09:23:33;;;;;;;36.50;15.00;;;;;;;;;;5067537;28;20035;-73
2021/12/27 09:25:59;;;;;;;28.57;14.47;;;;;;;;;;5070823;28;20027;-73
2021/12/27 09:28:24;;;;;;;35.67;14.03;;;;;;;;;;5070838;28;20020;-73
2021/12/27 09:30:51;;;;;;;36.57;15.63;;;;;;;;;;5073046;28;20377;-73
2021/12/27 09:33:16;;;;;;;43.93;21.17;;;;;;;;;;5071034;28;20039;-72
2021/12/27 09:35:42;;;;;;;37.33;15.23;;;;;;;;;;5070911;28;20024;-73
2021/12/27 09:38:08;;;;;;;46.13;14.93;;;;;;;;;;5071872;28;20119;-75
2021/12/27 09:40:34;;;;;;;33.27;14.80;;;;;;;;;;5071492;28;20043;-74
2021/12/27 09:43:01;;;;;;;34.47;14.87;;;;;;;;;;5071954;28;20074;-73
2021/12/27 09:45:27;;;;;;;37.43;15.57;;;;;;;;;;5071618;28;20035;-75
2021/12/27 09:47:52;;;;;;;31.57;14.63;;;;;;;;;;5071949;28;20024;-72
2021/12/27 09:50:33;;;;;;;36.27;14.80;;;;;;;;;;5070853;28;20022;-75
2021/12/27 09:52:59;;;;;;;36.33;14.70;;;;;;;;;;5069645;28;20023;-72
2021/12/27 09:55:26;;;;;;;30.67;14.00;;;;;;;;;;5071416;28;20028;-72
2021/12/27 09:57:53;;;;;;;33.00;15.00;;;;;;;;;;5070490;28;20500;-73
2021/12/27 10:00:19;;;;;;;35.40;15.13;;;;;;;;;;5070518;28;20017;-73
2021/12/27 10:02:48;;;;;;;32.60;14.50;;;;;;;;;;5070944;28;20035;-74
2021/12/27 10:05:13;;;;;;;32.43;14.37;;;;;;;;;;5071058;28;20417;-74
2021/12/27 10:07:41;;;;;;;32.37;13.47;;;;;;;;;;5074342;28;20091;-73
2021/12/27 10:10:09;;;;;;;36.73;14.07;;;;;;;;;;5075967;28;20091;-73
2021/12/27 10:12:36;;;;;;;29.37;13.67;;;;;;;;;;5072147;28;20380;-74
2021/12/27 10:15:05;;;;;;;32.97;14.07;;;;;;;;;;5072817;28;20032;-75
2021/12/27 10:17:34;;;;;;;29.57;14.57;;;;;;;;;;5071785;28;20012;-72
2021/12/27 10:20:14;;;;;;;29.40;13.30;;;;;;;;;;5070337;28;20547;-73
2021/12/27 10:22:41;;;;;;;33.77;12.97;;;;;;;;;;5071230;28;20020;-73
2021/12/27 10:25:28;;;;;;;33.17;12.63;;;;;;;;;;5072018;28;20028;-73
2021/12/27 10:27:55;;;;;;;38.20;15.47;;;;;;;;;;5055095;28;20052;-73
2021/12/27 10:30:25;;;;;;;35.30;14.10;;;;;;;;;;5071745;28;20021;-73
2021/12/27 10:33:05;;;;;;;36.57;14.07;;;;;;;;;;5071351;28;20032;-72
2021/12/27 10:35:45;;;;;;;38.90;13.37;;;;;;;;;;5069800;28;20048;-74
2021/12/27 10:38:24;;;;;;;31.90;14.10;;;;;;;;;;5071557;28;20509;-72
2021/12/27 10:40:59;;;;;;;32.50;14.13;;;;;;;;;;5069906;28;20041;-73
2021/12/27 10:43:56;;;;;;;33.47;14.30;;;;;;;;;;5070042;28;20040;-73
2021/12/27 10:46:22;;;;;;;31.87;14.10;;;;;;;;;;5057863;28;20028;-73
2021/12/27 10:48:57;;;;;;;35.50;13.67;;;;;;;;;;5069392;28;20051;-72
2021/12/27 10:51:28;;;;;;;39.43;15.87;;;;;;;;;;5069564;28;20473;-73
2021/12/27 10:53:56;;;;;;;31.57;14.17;;;;;;;;;;5071430;28;20099;-72
2021/12/27 10:56:24;;;;;;;37.47;14.97;;;;;;;;;;5070567;28;20028;-73
2021/12/27 10:58:59;;;;;;;31.97;14.63;;;;;;;;;;5070626;28;20020;-73
2021/12/27 11:01:27;;;;;;;36.37;15.07;;;;;;;;;;5069569;28;20089;-73
2021/12/27 11:03:59;;;;;;;30.33;14.40;;;;;;;;;;5070548;28;20051;-73
2021/12/27 11:06:27;;;;;;;33.03;13.82;;;;;;;;;;5036938;28;20039;-73
2021/12/27 11:08:54;;;;;;;40.63;17.13;;;;;;;;;;5070127;28;20028;-73
2021/12/27 11:11:22;;;;;;;34.30;16.23;;;;;;;;;;5072220;28;20099;-72
2021/12/27 11:13:51;;;;;;;34.77;14.37;;;;;;;;;;5072907;28;20166;-72
2021/12/27 11:16:17;;;;;;;30.37;13.87;;;;;;;;;;5073809;28;20024;-73
2021/12/27 11:18:43;;;;;;;34.43;15.50;;;;;;;;;;5071192;28;20388;-73
2021/12/27 11:21:18;;;;;;;40.57;16.73;;;;;;;;;;5071174;28;20024;-72
2021/12/27 11:23:49;;;;;;;43.30;17.33;;;;;;;;;;5071294;28;20023;-73
2021/12/27 11:26:21;;;;;;;28.33;13.60;;;;;;;;;;5071186;28;20055;-72
2021/12/27 11:28:46;;;;;;;32.13;13.83;;;;;;;;;;5052102;28;20107;-72
2021/12/27 11:31:25;;;;;;;34.30;15.60;;;;;;;;;;5070755;28;20135;-72
2021/12/27 11:33:59;;;;;;;32.90;15.53;;;;;;;;;;5068644;28;20050;-72
2021/12/27 11:36:40;;;;;;;36.17;14.53;;;;;;;;;;5070387;28;20055;-72
2021/12/27 11:39:30;;;;;;;38.23;15.40;;;;;;;;;;5068664;28;20089;-73
2021/12/27 11:42:04;;;;;;;36.17;14.23;;;;;;;;;;5049139;28;20049;-73
2021/12/27 11:44:34;;;;;;;38.15;15.48;;;;;;;;;;5058404;28;20116;-74
2021/12/27 11:47:00;;;;;;;38.93;15.00;;;;;;;;;;5067181;28;20056;-73
2021/12/27 11:49:51;;;;;;;38.50;14.63;;;;;;;;;;5069695;28;20489;-73
2021/12/27 11:52:39;;;;;;;33.93;15.40;;;;;;;;;;5068753;28;20075;-72
2021/12/27 11:55:12;;;;;;;34.47;13.83;;;;;;;;;;5068611;28;20055;-73
2021/12/27 11:57:51;;;;;;;31.03;14.70;;;;;;;;;;5067975;28;20947;-74
2021/12/27 12:00:20;;;;;;;36.80;15.00;;;;;;;;;;5069669;28;20020;-74
2021/12/27 12:03:09;;;;;;;36.53;15.07;;;;;;;;;;5069764;28;20080;-73
2021/12/27 12:05:39;;;;;;;33.03;15.37;;;;;;;;;;5067801;28;20426;-73
2021/12/27 12:08:07;;;;;;;33.60;15.40;;;;;;;;;;5069470;28;20021;-73
2021/12/27 12:10:33;;;;;;;35.70;14.53;;;;;;;;;;5070418;28;20012;-72
2021/12/27 12:13:16;;;;;;;43.70;14.50;;;;;;;;;;5069991;28;20111;-73
2021/12/27 12:16:23;;;;;;;35.23;16.70;;;;;;;;;;5067604;28;20024;-73
2021/12/27 12:18:51;;;;;;;39.23;16.23;;;;;;;;;;5069604;28;20032;-73
2021/12/27 12:21:39;;;;;;;30.07;14.43;;;;;;;;;;5068113;28;20052;-73
2021/12/27 12:24:22;;;;;;;49.07;18.10;;;;;;;;;;5054361;28;20024;-74
2021/12/27 12:26:51;;;;;;;34.50;15.00;;;;;;;;;;5067642;28;20016;-72
2021/12/27 12:29:18;;;;;;;34.87;15.93;;;;;;;;;;5069176;28;20051;-72
2021/12/27 12:31:45;;;;;;;42.97;18.47;;;;;;;;;;5052837;28;20028;-73
2021/12/27 12:34:19;;;;;;;40.13;16.40;;;;;;;;;;5069087;28;20048;-73
2021/12/27 12:36:49;;;;;;;37.77;16.13;;;;;;;;;;5067786;28;20040;-73
2021/12/27 12:39:15;;;;;;;34.77;14.90;;;;;;;;;;5068854;28;20069;-73
2021/12/27 12:41:41;;;;;;;33.77;15.83;;;;;;;;;;5067623;28;20367;-72
2021/12/27 12:44:07;;;;;;;35.43;14.80;;;;;;;;;;5068910;28;20081;-73
2021/12/27 12:46:42;;;;;;;38.87;17.27;;;;;;;;;;5068604;28;20471;-73
2021/12/27 12:49:11;;;;;;;35.80;16.20;;;;;;;;;;5067426;28;20373;-73
2021/12/27 12:51:53;;;;;;;34.53;15.57;;;;;;;;;;5068817;28;20375;-72
2021/12/27 12:54:32;;;;;;;42.97;16.05;;;;;;;;;;5067378;28;20126;-73
2021/12/27 12:57:08;;;;;;;40.17;14.87;;;;;;;;;;5069147;28;20027;-72
2021/12/27 12:59:47;;;;;;;35.53;14.60;;;;;;;;;;5070491;28;20344;-72
2021/12/27 13:02:19;;;;;;;34.27;15.13;;;;;;;;;;5071318;28;20013;-74
2021/12/27 13:04:49;;;;;;;39.50;16.98;;;;;;;;;;5071015;28;20032;-72
2021/12/27 13:07:37;;;;;;;36.33;15.33;;;;;;;;;;5073167;28;20028;-72
2021/12/27 13:10:29;;;;;;;37.33;16.50;;;;;;;;;;5073113;28;20255;-73
2021/12/27 13:13:02;;;;;;;40.20;15.90;;;;;;;;;;5069915;28;20541;-73
2021/12/27 13:15:34;;;;;;;40.90;16.57;;;;;;;;;;5072583;28;20120;-73
2021/12/27 13:18:15;;;;;;;33.10;16.73;;;;;;;;;;5071140;28;20026;-73
2021/12/27 13:20:53;;;;;;;41.87;15.73;;;;;;;;;;5062223;28;20078;-73
2021/12/27 13:23:23;;;;;;;30.17;14.87;;;;;;;;;;5071334;28;20111;-72
2021/12/27 13:25:58;;;;;;;30.27;14.53;;;;;;;;;;5053666;28;20028;-73
2021/12/27 13:28:36;;;;;;;36.47;15.73;;;;;;;;;;5070998;28;20117;-73
2021/12/27 13:31:06;;;;;;;35.07;15.50;;;;;;;;;;5071382;28;20065;-73
2021/12/27 13:33:41;;;;;;;56.47;21.17;;;;;;;;;;5070652;28;20032;-75
2021/12/27 13:36:11;;;;;;;44.80;16.73;;;;;;;;;;5072365;28;20033;-73
2021/12/27 13:38:40;;;;;;;35.87;15.97;;;;;;;;;;5071199;28;20507;-74
2021/12/27 13:41:10;;;;;;;37.90;16.53;;;;;;;;;;5071260;28;20025;-73
2021/12/27 13:43:51;;;;;;;42.77;16.10;;;;;;;;;;5070882;28;20040;-73
2021/12/27 13:46:20;;;;;;;45.07;17.53;;;;;;;;;;5073247;28;20361;-73
2021/12/27 13:48:45;;;;;;;41.67;16.97;;;;;;;;;;5078135;28;20032;-73
2021/12/27 13:51:16;;;;;;;32.43;15.93;;;;;;;;;;5083698;28;20118;-74
2021/12/27 13:53:52;;;;;;;37.23;14.57;;;;;;;;;;5080821;28;20029;-73
2021/12/27 13:56:17;;;;;;;35.03;16.10;;;;;;;;;;5079920;28;20047;-72
2021/12/27 13:58:46;;;;;;;34.17;14.27;;;;;;;;;;5074521;28;20028;-72
2021/12/27 14:01:17;;;;;;;43.57;15.57;;;;;;;;;;5071815;28;20055;-73
2021/12/27 14:03:46;;;;;;;32.53;16.37;;;;;;;;;;5072393;28;20028;-72
2021/12/27 14:06:13;;;;;;;35.17;17.13;;;;;;;;;;5071830;28;20029;-73
2021/12/27 14:08:57;;;;;;;42.53;15.60;;;;;;;;;;5071426;28;20040;-73
2021/12/27 14:11:23;;;;;;;42.47;15.37;;;;;;;;;;5069505;28;20553;-73
2021/12/27 14:13:52;;;;;;;40.80;14.60;;;;;;;;;;5070531;28;20037;-74
2021/12/27 14:16:21;;;;;;;43.80;16.97;;;;;;;;;;5070467;28;20051;-72
2021/12/27 14:19:11;;;;;;;39.23;15.87;;;;;;;;;;5071839;28;20119;-73
2021/12/27 14:21:59;;;;;;;32.73;13.93;;;;;;;;;;5059704;28;20055;-72
2021/12/27 14:24:34;;;;;;;44.07;14.43;;;;;;;;;;5071153;28;20025;-73
2021/12/27 14:27:01;;;;;;;45.20;18.80;;;;;;;;;;5070727;28;20504;-74
2021/12/27 14:29:28;;;;;;;39.73;14.60;;;;;;;;;;5070696;28;20119;-73
2021/12/27 14:31:57;;;;;;;39.67;15.83;;;;;;;;;;5070461;28;20428;-73
2021/12/27 14:34:40;;;;;;;37.53;16.77;;;;;;;;;;5070563;28;20056;-72